Time;durP1;ratioP1;P1;durP2;ratioP2;P2;SDS_P1;SDS_P2;PMS_P1;PMS_P2;Temp;Humidity;BMP_temperature;BMP_pressure;BME280_temperature;BME280_humidity;BME280_pressure;Samples;Min_cycle;Max_cycle;Signal;HPM_P1;HPM_P2
2024/04/12 00:01:42;;;;;;;;;;;;;;;7.69;100.00;97145.63;5334912;26;19936;-71
2024/04/12 00:04:15;;;;;;;;;;;;;;;7.66;100.00;97144.22;5334233;26;20333;-71
2024/04/12 00:06:43;;;;;;;;;;;;;;;7.60;100.00;97144.25;5332661;26;19937;-71
2024/04/12 00:09:17;;;;;;;;;;;;;;;7.57;100.00;97142.03;5334432;26;19930;-70
2024/04/12 00:11:46;;;;;;;;;;;;;;;7.59;100.00;97138.13;5334325;26;20541;-70
2024/04/12 00:14:14;;;;;;;;;;;;;;;7.56;100.00;97127.84;5333122;26;19930;-70
2024/04/12 00:16:43;;;;;;;;;;;;;;;7.52;100.00;97120.50;5334555;26;19930;-71
2024/04/12 00:19:18;;;;;;;;;;;;;;;7.47;100.00;97121.16;5333695;26;19930;-71
2024/04/12 00:21:51;;;;;;;;;;;;;;;7.34;100.00;97115.94;5333627;26;19936;-71
2024/04/12 00:24:23;;;;;;;;;;;;;;;7.29;100.00;97105.09;5334196;26;19929;-71
2024/04/12 00:26:53;;;;;;;;;;;;;;;7.31;100.00;97109.16;5332371;26;20162;-71
2024/04/12 00:29:36;;;;;;;;;;;;;;;7.35;100.00;97104.19;5334450;26;20098;-71
2024/04/12 00:32:13;;;;;;;;;;;;;;;7.37;100.00;97108.28;5333062;26;19936;-70
2024/04/12 00:34:47;;;;;;;;;;;;;;;7.37;100.00;97112.81;5332261;26;19936;-71
2024/04/12 00:37:16;;;;;;;;;;;;;;;7.22;100.00;97107.81;5332026;26;19930;-71
2024/04/12 00:39:48;;;;;;;;;;;;;;;7.19;100.00;97104.75;5332786;26;19936;-71
2024/04/12 00:42:26;;;;;;;;;;;;;;;7.25;100.00;97099.34;5333694;26;20407;-72
2024/04/12 00:44:54;;;;;;;;;;;;;;;7.28;100.00;97098.91;5332468;26;20268;-71
2024/04/12 00:47:22;;;;;;;;;;;;;;;7.26;100.00;97094.81;5334050;26;19936;-70
2024/04/12 00:49:51;;;;;;;;;;;;;;;7.15;100.00;97092.88;5333288;26;19930;-71
2024/04/12 00:52:28;;;;;;;;;;;;;;;7.05;100.00;97096.03;5333602;26;20268;-72
2024/04/12 00:55:08;;;;;;;;;;;;;;;7.10;100.00;97090.03;5360502;26;19930;-71
2024/04/12 00:57:38;;;;;;;;;;;;;;;7.05;100.00;97082.66;5332870;26;19936;-72
2024/04/12 01:00:08;;;;;;;;;;;;;;;7.12;100.00;97082.59;5331746;26;20624;-71
2024/04/12 01:02:41;;;;;;;;;;;;;;;7.12;100.00;97082.59;5332989;26;19930;-72
2024/04/12 01:05:13;;;;;;;;;;;;;;;7.16;100.00;97078.47;5333468;26;19930;-71
2024/04/12 01:07:48;;;;;;;;;;;;;;;7.20;100.00;97087.69;5333213;26;19930;-71
2024/04/12 01:10:24;;;;;;;;;;;;;;;7.15;100.00;97090.19;5332261;26;19936;-71
2024/04/12 01:12:57;;;;;;;;;;;;;;;7.07;100.00;97085.13;5333092;26;19930;-71
2024/04/12 01:15:29;;;;;;;;;;;;;;;6.92;100.00;97078.25;5333112;26;19940;-71
2024/04/12 01:17:56;;;;;;;;;;;;;;;6.89;100.00;97077.88;5331874;26;19930;-71
2024/04/12 01:20:25;;;;;;;;;;;;;;;6.90;100.00;97072.31;5333157;26;19941;-71
2024/04/12 01:22:57;;;;;;;;;;;;;;;6.75;100.00;97071.00;5333290;26;19930;-71
2024/04/12 01:25:26;;;;;;;;;;;;;;;6.69;100.00;97056.66;5332927;26;20718;-72
2024/04/12 01:27:55;;;;;;;;;;;;;;;6.76;100.00;97054.75;5331922;26;20239;-71
2024/04/12 01:30:23;;;;;;;;;;;;;;;6.79;100.00;97045.50;5333244;26;20482;-72
2024/04/12 01:32:50;;;;;;;;;;;;;;;6.81;100.00;97044.22;5331246;26;19930;-71
2024/04/12 01:35:21;;;;;;;;;;;;;;;6.83;100.00;97041.34;5333181;26;19930;-74
2024/04/12 01:37:51;;;;;;;;;;;;;;;6.85;100.00;97049.97;5333061;26;19930;-74
2024/04/12 01:40:22;;;;;;;;;;;;;;;6.84;100.00;97049.13;5332751;26;19936;-71
2024/04/12 01:42:51;;;;;;;;;;;;;;;6.85;100.00;97039.28;5332886;26;20344;-71
2024/04/12 01:45:26;;;;;;;;;;;;;;;6.86;100.00;97039.06;5332785;26;19940;-71
2024/04/12 01:47:55;;;;;;;;;;;;;;;6.87;100.00;97032.66;5332027;26;20534;-70
2024/04/12 01:50:23;;;;;;;;;;;;;;;6.91;100.00;97044.56;5331361;26;20320;-71
2024/04/12 01:52:54;;;;;;;;;;;;;;;6.95;100.00;97040.38;5332721;26;20290;-74
2024/04/12 01:55:25;;;;;;;;;;;;;;;6.90;100.00;97037.56;5332758;26;19930;-71
2024/04/12 01:57:55;;;;;;;;;;;;;;;6.80;100.00;97031.88;5332776;26;19930;-71
2024/04/12 02:00:24;;;;;;;;;;;;;;;6.73;100.00;97025.78;5332576;26;20263;-71
2024/04/12 02:02:53;;;;;;;;;;;;;;;6.74;100.00;97022.09;5332448;26;19930;-71
2024/04/12 02:05:29;;;;;;;;;;;;;;;6.80;100.00;97025.72;5332477;26;20272;-70
2024/04/12 02:07:56;;;;;;;;;;;;;;;6.78;100.00;97023.28;5332132;26;20270;-71
2024/04/12 02:10:24;;;;;;;;;;;;;;;6.80;100.00;97026.53;5331124;26;19962;-71
2024/04/12 02:12:54;;;;;;;;;;;;;;;6.85;100.00;97021.38;5332096;26;19936;-71
2024/04/12 02:15:28;;;;;;;;;;;;;;;6.89;100.00;97027.09;5331427;26;19930;-70
2024/04/12 02:17:58;;;;;;;;;;;;;;;6.94;100.00;97033.41;5358915;26;19981;-71
2024/04/12 02:20:34;;;;;;;;;;;;;;;6.91;100.00;97031.19;5332124;26;19929;-72
2024/04/12 02:23:05;;;;;;;;;;;;;;;6.90;100.00;97040.25;5331623;26;19930;-71
2024/04/12 02:25:35;;;;;;;;;;;;;;;6.86;100.00;97035.56;5330646;26;20664;-71
2024/04/12 02:28:07;;;;;;;;;;;;;;;6.80;100.00;97039.91;5330462;26;19929;-71
2024/04/12 02:30:42;;;;;;;;;;;;;;;6.78;100.00;97039.31;5330853;26;19941;-71
2024/04/12 02:33:14;;;;;;;;;;;;;;;6.74;100.00;97040.78;5332032;26;19941;-71
2024/04/12 02:35:42;;;;;;;;;;;;;;;6.69;100.00;97037.97;5332310;26;19930;-71
2024/04/12 02:38:15;;;;;;;;;;;;;;;6.66;100.00;97033.03;5331830;26;20250;-71
2024/04/12 02:40:43;;;;;;;;;;;;;;;6.62;100.00;97031.84;5341255;26;19937;-71
2024/04/12 02:43:14;;;;;;;;;;;;;;;6.62;100.00;97040.69;5331790;26;20275;-71
2024/04/12 02:45:52;;;;;;;;;;;;;;;6.64;100.00;97038.63;5330205;26;19930;-71
2024/04/12 02:48:20;;;;;;;;;;;;;;;6.63;100.00;97036.16;5331823;26;19930;-71
2024/04/12 02:50:53;;;;;;;;;;;;;;;6.61;100.00;97041.72;5331533;26;19930;-71
2024/04/12 02:53:23;;;;;;;;;;;;;;;6.63;100.00;97046.84;5331910;26;19941;-71
2024/04/12 02:56:00;;;;;;;;;;;;;;;6.64;100.00;97037.81;5939749;21;20445;-70
2024/04/12 02:58:29;;;;;;;;;;;;;;;6.67;100.00;97042.69;5437566;26;20361;-71
2024/04/12 03:01:00;;;;;;;;;;;;;;;6.66;100.00;97030.38;5437382;26;19935;-71
2024/04/12 03:03:27;;;;;;;;;;;;;;;6.65;100.00;97031.41;5436819;26;19935;-71
2024/04/12 03:06:01;;;;;;;;;;;;;;;6.64;100.00;97033.28;5437536;26;19932;-71
2024/04/12 03:08:32;;;;;;;;;;;;;;;6.64;100.00;97037.81;5437237;26;19956;-70
2024/04/12 03:11:13;;;;;;;;;;;;;;;6.65;100.00;97039.41;5437059;26;19935;-72
2024/04/12 03:13:41;;;;;;;;;;;;;;;6.63;100.00;97033.50;5437095;26;19929;-71
2024/04/12 03:16:13;;;;;;;;;;;;;;;6.64;100.00;97037.81;5435604;26;19928;-72
2024/04/12 03:18:42;;;;;;;;;;;;;;;6.61;100.00;97038.22;5437264;26;20253;-74
2024/04/12 03:21:09;;;;;;;;;;;;;;;6.59;100.00;97038.44;5436923;26;20481;-70
2024/04/12 03:23:37;;;;;;;;;;;;;;;6.60;100.00;97041.94;5437025;26;20370;-72
2024/04/12 03:26:04;;;;;;;;;;;;;;;6.57;100.00;97040.53;5404759;26;19935;-72
2024/04/12 03:28:35;;;;;;;;;;;;;;;6.59;100.00;97040.28;5436955;26;19928;-71
2024/04/12 03:31:07;;;;;;;;;;;;;;;6.58;100.00;97046.66;5436741;26;20265;-71
2024/04/12 03:33:42;;;;;;;;;;;;;;;6.57;100.00;97051.22;5437648;26;19928;-71
2024/04/12 03:36:29;;;;;;;;;;;;;;;6.58;100.00;97049.34;5440060;26;19935;-74
2024/04/12 03:41:56;;;;;;;;;;;;;;;6.57;100.00;97047.72;5440416;26;19935;-71
2024/04/12 03:44:30;;;;;;;;;;;;;;;6.55;100.00;97049.78;5439587;26;19929;-71
2024/04/12 03:47:07;;;;;;;;;;;;;;;6.55;100.00;97049.78;5440418;26;19935;-71
2024/04/12 03:49:41;;;;;;;;;;;;;;;6.57;100.00;97053.88;5439333;26;19935;-72
2024/04/12 03:52:12;;;;;;;;;;;;;;;6.61;100.00;97049.75;5440263;26;19935;-73
2024/04/12 03:54:40;;;;;;;;;;;;;;;6.59;100.00;97049.13;5440066;26;19929;-71
2024/04/12 03:57:09;;;;;;;;;;;;;;;6.61;100.00;97051.59;5440247;26;20290;-71
2024/04/12 03:59:38;;;;;;;;;;;;;;;6.61;100.00;97048.91;5440431;26;19929;-70
2024/04/12 04:02:08;;;;;;;;;;;;;;;6.60;100.00;97052.63;5438877;26;20298;-71
2024/04/12 04:04:37;;;;;;;;;;;;;;;6.59;100.00;97048.31;5440204;26;19928;-71
2024/04/12 04:07:05;;;;;;;;;;;;;;;6.56;100.00;97051.44;5439091;26;19967;-71
2024/04/12 04:09:32;;;;;;;;;;;;;;;6.54;100.00;97046.31;5438398;26;19928;-71
2024/04/12 04:12:00;;;;;;;;;;;;;;;6.53;100.00;97046.50;5440004;26;20052;-71
2024/04/12 04:14:28;;;;;;;;;;;;;;;6.49;100.00;97035.47;5440418;26;21277;-71
2024/04/12 04:16:56;;;;;;;;;;;;;;;6.50;100.00;97053.09;5438646;26;19929;-71
2024/04/12 04:19:30;;;;;;;;;;;;;;;6.49;100.00;97048.00;5440409;26;19928;-71
2024/04/12 04:21:58;;;;;;;;;;;;;;;6.46;100.00;97045.75;5439865;26;19928;-72
2024/04/12 04:24:25;;;;;;;;;;;;;;;6.44;100.00;97047.81;5439800;26;20621;-71
2024/04/12 04:26:52;;;;;;;;;;;;;;;6.45;100.00;97052.94;5440216;26;20470;-71
2024/04/12 04:29:20;;;;;;;;;;;;;;;6.50;100.00;97055.75;5439946;26;19928;-72
2024/04/12 04:31:51;;;;;;;;;;;;;;;6.49;100.00;97056.00;5439840;26;19929;-71
2024/04/12 04:34:19;;;;;;;;;;;;;;;6.47;100.00;97052.72;5439569;26;20362;-71
2024/04/12 04:36:49;;;;;;;;;;;;;;;6.51;100.00;97049.38;5439748;26;20296;-71
2024/04/12 04:39:17;;;;;;;;;;;;;;;6.50;100.00;97065.66;5439345;26;19935;-71
2024/04/12 04:41:45;;;;;;;;;;;;;;;6.50;100.00;97060.31;5438370;26;20552;-71
2024/04/12 04:44:16;;;;;;;;;;;;;;;6.48;100.00;97059.72;5438337;26;19933;-71
2024/04/12 04:46:44;;;;;;;;;;;;;;;6.48;100.00;97062.38;5438010;26;20340;-71
2024/04/12 04:49:12;;;;;;;;;;;;;;;6.51;100.00;97064.59;5439232;26;20597;-72
2024/04/12 04:51:40;;;;;;;;;;;;;;;6.53;100.00;97059.88;5438976;26;19940;-70
2024/04/12 04:54:13;;;;;;;;;;;;;;;6.52;100.00;97063.56;5439403;26;19928;-71
2024/04/12 04:56:42;;;;;;;;;;;;;;;6.52;100.00;97056.38;5438855;26;20262;-72
2024/04/12 04:59:16;;;;;;;;;;;;;;;6.56;100.00;97052.25;5438166;26;20792;-71
2024/04/12 05:01:48;;;;;;;;;;;;;;;6.60;100.00;97050.75;5437789;26;20373;-71
2024/04/12 05:04:16;;;;;;;;;;;;;;;6.68;100.00;97049.69;5437959;26;20255;-71
2024/04/12 05:06:44;;;;;;;;;;;;;;;6.75;100.00;97053.13;5439246;26;19929;-72
2024/04/12 05:09:21;;;;;;;;;;;;;;;6.82;100.00;97053.06;5439158;26;19928;-71
2024/04/12 05:11:52;;;;;;;;;;;;;;;6.91;100.00;97055.25;5438907;26;19928;-71
2024/04/12 05:15:10;;;;;;;;;;;;;;;7.00;100.00;97053.13;5439110;26;20362;-71
2024/04/12 05:17:15;;;;;;;;;;;;;;;7.14;100.00;97054.63;5424908;26;19928;-71
2024/04/12 05:19:43;;;;;;;;;;;;;;;7.29;100.00;97044.38;5439191;26;19928;-71
2024/04/12 05:22:11;;;;;;;;;;;;;;;7.42;100.00;97052.25;5438775;26;19935;-72
2024/04/12 05:24:39;;;;;;;;;;;;;;;7.54;100.00;97049.66;5439003;26;20247;-71
2024/04/12 05:27:10;;;;;;;;;;;;;;;7.86;100.00;97031.56;5439055;26;19929;-71
2024/04/12 05:29:38;;;;;;;;;;;;;;;8.06;100.00;97044.69;5438338;26;19972;-70
2024/04/12 05:32:06;;;;;;;;;;;;;;;8.11;100.00;97034.09;5437933;26;19944;-73
2024/04/12 05:34:34;;;;;;;;;;;;;;;8.31;100.00;97037.38;5437204;26;19935;-73
2024/04/12 05:37:05;;;;;;;;;;;;;;;8.62;100.00;97025.53;5406803;26;19935;-73
2024/04/12 05:39:33;;;;;;;;;;;;;;;8.82;100.00;97022.53;5438659;26;20367;-73
2024/04/12 05:42:00;;;;;;;;;;;;;;;8.99;100.00;97026.13;5406791;26;19928;-73
2024/04/12 05:44:28;;;;;;;;;;;;;;;9.24;100.00;97016.00;5438525;26;19929;-72
2024/04/12 05:46:55;;;;;;;;;;;;;;;9.46;100.00;97015.38;5437376;26;20477;-73
2024/04/12 05:49:23;;;;;;;;;;;;;;;9.49;100.00;97021.09;5438744;26;19929;-73
2024/04/12 05:51:50;;;;;;;;;;;;;;;9.65;100.00;97017.66;5438898;26;19928;-73
2024/04/12 05:54:17;;;;;;;;;;;;;;;9.93;100.00;97008.03;5438729;26;19935;-73
2024/04/12 05:56:46;;;;;;;;;;;;;;;9.94;100.00;97017.69;5436450;26;19935;-73
2024/04/12 05:59:14;;;;;;;;;;;;;;;9.94;100.00;97002.38;5436937;26;19928;-73
2024/04/12 06:01:46;;;;;;;;;;;;;;;10.04;100.00;97004.47;5406578;26;20469;-73
2024/04/12 06:04:18;;;;;;;;;;;;;;;10.20;100.00;97005.59;5436794;26;20471;-73
2024/04/12 06:06:47;;;;;;;;;;;;;;;10.32;100.00;97012.53;5437405;26;19954;-73
2024/04/12 06:09:21;;;;;;;;;;;;;;;10.40;100.00;97009.44;5436545;26;20358;-72
2024/04/12 06:11:50;;;;;;;;;;;;;;;10.50;100.00;97006.94;5437958;26;19944;-71
2024/04/12 06:14:20;;;;;;;;;;;;;;;10.71;100.00;96988.44;5438216;26;19953;-73
2024/04/12 06:16:48;;;;;;;;;;;;;;;10.88;100.00;96979.28;5437347;26;20624;-72
2024/04/12 06:19:15;;;;;;;;;;;;;;;11.01;100.00;96974.66;5437146;26;19929;-71
2024/04/12 06:21:46;;;;;;;;;;;;;;;11.09;100.00;96980.44;5436543;26;19939;-73
2024/04/12 06:24:16;;;;;;;;;;;;;;;11.15;100.00;96986.69;5436458;26;19928;-72
2024/04/12 06:26:47;;;;;;;;;;;;;;;11.19;100.00;96982.44;5437183;26;19928;-71
2024/04/12 06:29:18;;;;;;;;;;;;;;;11.28;100.00;96984.47;5436793;26;19935;-70
2024/04/12 06:31:58;;;;;;;;;;;;;;;11.30;100.00;96992.28;5439412;26;19928;-73
2024/04/12 06:34:26;;;;;;;;;;;;;;;11.37;100.00;96998.31;5437958;26;20325;-73
2024/04/12 06:36:56;;;;;;;;;;;;;;;11.54;100.00;96996.34;5436100;26;20273;-70
2024/04/12 06:39:27;;;;;;;;;;;;;;;11.55;100.00;96998.00;5436166;26;19935;-71
2024/04/12 06:41:55;;;;;;;;;;;;;;;11.65;100.00;96995.44;5405275;26;19933;-72
2024/04/12 06:44:24;;;;;;;;;;;;;;;11.74;100.00;97000.38;5438096;26;19969;-73
2024/04/12 06:46:52;;;;;;;;;;;;;;;12.03;100.00;96994.56;5392735;26;19935;-71
2024/04/12 06:49:26;;;;;;;;;;;;;;;12.21;100.00;96993.38;5437318;26;19929;-72
2024/04/12 06:52:09;;;;;;;;;;;;;;;12.05;100.00;97002.41;5436239;26;21223;-72
2024/04/12 06:54:41;;;;;;;;;;;;;;;12.04;100.00;96995.38;5435628;26;19934;-72
2024/04/12 06:57:09;;;;;;;;;;;;;;;12.02;100.00;97009.09;5437227;26;20284;-73
2024/04/12 06:59:36;;;;;;;;;;;;;;;12.45;100.00;97005.50;5437717;26;19928;-70
2024/04/12 07:02:08;;;;;;;;;;;;;;;12.87;100.00;97016.38;5432740;26;19928;-73
2024/04/12 07:04:38;;;;;;;;;;;;;;;13.28;100.00;97026.69;5436194;26;19935;-74
2024/04/12 07:07:06;;;;;;;;;;;;;;;13.70;100.00;97054.50;5436694;26;19928;-74
2024/04/12 07:09:33;;;;;;;;;;;;;;;13.73;100.00;97093.72;5441013;26;20273;-73
2024/04/12 07:12:07;;;;;;;;;;;;;;;14.08;100.00;97112.00;5440781;26;19928;-74
2024/04/12 07:14:37;;;;;;;;;;;;;;;13.59;100.00;97121.16;5438939;26;19928;-73
2024/04/12 07:17:20;;;;;;;;;;;;;;;13.44;100.00;97118.34;5440781;26;19934;-74
2024/04/12 07:19:51;;;;;;;;;;;;;;;13.40;100.00;97111.03;5439656;26;19928;-73
2024/04/12 07:22:22;;;;;;;;;;;;;;;13.49;100.00;97112.19;5407655;26;19935;-74
2024/04/12 07:24:50;;;;;;;;;;;;;;;13.64;100.00;97120.41;5440650;26;19928;-74
2024/04/12 07:27:22;;;;;;;;;;;;;;;13.69;100.00;97123.13;5440453;26;19992;-72
2024/04/12 07:29:49;;;;;;;;;;;;;;;13.67;100.00;97127.97;5440607;26;20261;-74
2024/04/12 07:32:17;;;;;;;;;;;;;;;13.64;100.00;97133.91;5440157;26;20738;-74
2024/04/12 07:34:51;;;;;;;;;;;;;;;13.85;100.00;97132.97;5406736;26;19928;-75
2024/04/12 07:37:30;;;;;;;;;;;;;;;14.02;100.00;97141.72;5439371;26;19929;-74
2024/04/12 07:42:46;;;;;;;;;;;;;;;14.25;100.00;97177.50;5439095;26;19929;-74
2024/04/12 07:45:17;;;;;;;;;;;;;;;14.35;100.00;97177.56;5440320;26;19929;-74
2024/04/12 07:47:53;;;;;;;;;;;;;;;14.43;100.00;97189.81;5438891;26;19935;-71
2024/04/12 07:50:31;;;;;;;;;;;;;;;14.77;100.00;97199.13;5439923;26;19935;-74
2024/04/12 07:53:10;;;;;;;;;;;;;;;14.90;100.00;97205.97;5439495;26;19933;-74
2024/04/12 07:55:39;;;;;;;;;;;;;;;14.69;100.00;97234.81;5439799;26;19928;-74
2024/04/12 07:58:09;;;;;;;;;;;;;;;14.73;100.00;97234.06;5407815;26;19928;-74
2024/04/12 08:00:45;;;;;;;;;;;;;;;14.79;100.00;97243.00;5440300;26;20314;-74
2024/04/12 08:03:16;;;;;;;;;;;;;;;15.25;100.00;97268.34;5440005;26;19928;-73
2024/04/12 08:06:05;;;;;;;;;;;;;;;15.50;100.00;97271.09;5440366;26;19929;-74
2024/04/12 08:08:43;;;;;;;;;;;;;;;15.87;100.00;97275.50;5439911;26;19935;-74
2024/04/12 08:11:12;;;;;;;;;;;;;;;15.99;100.00;97289.63;5439763;26;19935;-72
2024/04/12 08:13:44;;;;;;;;;;;;;;;15.85;100.00;97288.53;5439838;26;19962;-73
2024/04/12 08:16:14;;;;;;;;;;;;;;;15.79;100.00;97295.00;5440128;26;19928;-73
2024/04/12 08:18:43;;;;;;;;;;;;;;;15.61;100.00;97303.69;5439093;26;20049;-73
2024/04/12 08:21:12;;;;;;;;;;;;;;;15.80;100.00;97297.47;5438967;26;19928;-73
2024/04/12 08:23:45;;;;;;;;;;;;;;;16.11;100.00;97297.47;5439736;26;20334;-73
2024/04/12 08:26:16;;;;;;;;;;;;;;;16.21;100.00;97314.56;5439767;26;20369;-73
2024/04/12 08:28:43;;;;;;;;;;;;;;;16.25;100.00;97315.66;5439848;26;19929;-74
2024/04/12 08:31:11;;;;;;;;;;;;;;;16.19;100.00;97299.66;5439452;26;20349;-73
2024/04/12 08:33:42;;;;;;;;;;;;;;;16.30;100.00;97307.50;5439144;26;19928;-75
2024/04/12 08:36:16;;;;;;;;;;;;;;;16.53;100.00;97308.81;5437397;26;19940;-73
2024/04/12 08:39:12;;;;;;;;;;;;;;;16.46;100.00;97310.19;5439603;26;20542;-73
2024/04/12 08:41:42;;;;;;;;;;;;;;;16.57;100.00;97301.78;5439053;26;19928;-74
2024/04/12 08:44:12;;;;;;;;;;;;;;;16.62;100.00;97309.13;5439510;26;20465;-74
2024/04/12 08:46:43;;;;;;;;;;;;;;;16.59;100.00;97331.34;5439292;26;19929;-74
2024/04/12 08:49:14;;;;;;;;;;;;;;;16.58;100.00;97327.03;5439217;26;19928;-74
2024/04/12 08:51:42;;;;;;;;;;;;;;;16.65;100.00;97338.44;5439398;26;20323;-73
2024/04/12 08:54:11;;;;;;;;;;;;;;;17.15;100.00;97332.06;5439186;26;19929;-74
2024/04/12 08:56:39;;;;;;;;;;;;;;;17.23;100.00;97319.78;5439220;26;20617;-73
2024/04/12 08:59:07;;;;;;;;;;;;;;;16.93;100.00;97318.81;5438452;26;20364;-73
2024/04/12 09:01:40;;;;;;;;;;;;;;;16.92;100.00;97325.34;5439200;26;19932;-73
2024/04/12 09:04:14;;;;;;;;;;;;;;;17.24;100.00;97324.13;5438261;26;20015;-73
2024/04/12 09:06:48;;;;;;;;;;;;;;;17.62;100.00;97328.84;5439048;26;19935;-73
2024/04/12 09:09:17;;;;;;;;;;;;;;;17.63;100.00;97340.53;5438945;26;19934;-73
2024/04/12 09:11:45;;;;;;;;;;;;;;;17.79;100.00;97336.63;5439389;26;19928;-73
2024/04/12 09:14:20;;;;;;;;;;;;;;;17.84;100.00;97339.31;5438850;26;19928;-73
2024/04/12 09:16:48;;;;;;;;;;;;;;;17.59;100.00;97334.84;5438053;26;19935;-74
2024/04/12 09:19:16;;;;;;;;;;;;;;;17.81;100.00;97321.66;5437546;26;19944;-74
2024/04/12 09:21:58;;;;;;;;;;;;;;;17.73;100.00;97341.31;5438624;26;20358;-74
2024/04/12 09:24:31;;;;;;;;;;;;;;;17.88;100.00;97330.31;5437639;26;19935;-75
2024/04/12 09:27:06;;;;;;;;;;;;;;;17.88;100.00;97333.06;5437771;26;19939;-74
2024/04/12 09:29:43;;;;;;;;;;;;;;;18.04;100.00;97328.31;5437855;26;19928;-72
2024/04/12 09:35:01;;;;;;;;;;;;;;;18.49;100.00;97329.00;5437917;26;19935;-74
2024/04/12 09:37:30;;;;;;;;;;;;;;;18.63;100.00;97330.81;5438180;26;19928;-74
2024/04/12 09:45:20;;;;;;;;;;;;;;;18.56;100.00;97352.13;5438019;26;19928;-74
2024/04/12 10:38:39;;;;;;;;;;;;;;;19.46;100.00;97324.13;5437564;26;19935;-74
2024/04/12 10:41:15;;;;;;;;;;;;;;;19.70;100.00;97340.50;5438309;26;19928;-74
2024/04/12 10:43:42;;;;;;;;;;;;;;;19.62;100.00;97322.03;5436678;26;19928;-74
2024/04/12 10:46:13;;;;;;;;;;;;;;;19.80;100.00;97318.50;5437830;26;19944;-74
2024/04/12 10:48:42;;;;;;;;;;;;;;;19.89;100.00;97322.19;5438206;26;19971;-74
2024/04/12 10:51:14;;;;;;;;;;;;;;;19.81;100.00;97315.47;5437873;26;19935;-73
2024/04/12 10:53:42;;;;;;;;;;;;;;;19.83;100.00;97326.09;5439883;26;19935;-74
2024/04/12 10:56:18;;;;;;;;;;;;;;;19.96;100.00;97327.28;5437334;26;19938;-71
2024/04/12 10:58:51;;;;;;;;;;;;;;;20.13;100.00;97333.84;5438022;26;19944;-74
2024/04/12 11:01:23;;;;;;;;;;;;;;;20.12;100.00;97337.66;5434763;26;19962;-75
2024/04/12 11:03:57;;;;;;;;;;;;;;;20.06;100.00;97332.59;5436843;26;19929;-75
2024/04/12 11:06:31;;;;;;;;;;;;;;;20.03;100.00;97324.97;5435847;26;20680;-73
2024/04/12 11:08:59;;;;;;;;;;;;;;;19.88;100.00;97323.28;5436053;26;19929;-74
2024/04/12 11:11:34;;;;;;;;;;;;;;;19.57;100.00;97324.84;5435941;26;19928;-74
2024/04/12 11:14:03;;;;;;;;;;;;;;;19.68;100.00;97313.50;5437045;26;20265;-74
2024/04/12 11:33:12;;;;;;;;;;;;;;;20.16;100.00;97322.31;5435777;26;19928;-74
2024/04/12 11:35:49;;;;;;;;;;;;;;;20.10;100.00;97320.75;5436398;26;19928;-74
2024/04/12 11:38:17;;;;;;;;;;;;;;;20.00;100.00;97312.75;5436251;26;20605;-74
2024/04/12 11:40:45;;;;;;;;;;;;;;;20.13;100.00;97328.38;5436767;26;19935;-73
2024/04/12 11:43:13;;;;;;;;;;;;;;;20.21;100.00;97330.44;5436625;26;19929;-71
2024/04/12 11:45:41;;;;;;;;;;;;;;;20.14;100.00;97318.28;5436158;26;19929;-74
2024/04/12 11:48:14;;;;;;;;;;;;;;;19.96;100.00;97321.81;5436480;26;19966;-72
2024/04/12 11:50:42;;;;;;;;;;;;;;;20.21;100.00;97316.78;5436241;26;19928;-72
2024/04/12 11:53:10;;;;;;;;;;;;;;;20.29;100.00;97307.09;5436233;26;20687;-72
2024/04/12 11:55:39;;;;;;;;;;;;;;;20.42;100.00;97302.81;5440199;26;19929;-73
2024/04/12 11:58:08;;;;;;;;;;;;;;;20.41;100.00;97290.25;5423159;26;19954;-74
2024/04/12 12:00:37;;;;;;;;;;;;;;;20.29;100.00;97289.91;5438582;26;19935;-72
2024/04/12 12:03:04;;;;;;;;;;;;;;;20.31;100.00;97296.66;5439950;26;20464;-72
2024/04/12 12:05:37;;;;;;;;;;;;;;;20.29;100.00;97292.63;5439881;26;19946;-73
2024/04/12 12:08:05;;;;;;;;;;;;;;;20.18;100.00;97297.44;5440341;26;19928;-74
2024/04/12 12:10:34;;;;;;;;;;;;;;;20.25;100.00;97288.84;5439931;26;20068;-73
2024/04/12 12:13:01;;;;;;;;;;;;;;;20.19;100.00;97294.41;5439796;26;20457;-74
2024/04/12 12:15:29;;;;;;;;;;;;;;;20.34;100.00;97295.28;5439694;26;19929;-74
2024/04/12 12:17:56;;;;;;;;;;;;;;;20.32;100.00;97287.38;5408265;26;19935;-72
2024/04/12 12:20:24;;;;;;;;;;;;;;;20.37;100.00;97281.06;5439601;26;20549;-72
2024/04/12 12:22:53;;;;;;;;;;;;;;;20.36;100.00;97274.78;5439899;26;19935;-72
2024/04/12 12:25:21;;;;;;;;;;;;;;;20.16;100.00;97275.88;5439594;26;19928;-72
2024/04/12 12:27:50;;;;;;;;;;;;;;;20.20;100.00;97284.31;5439297;26;20489;-72
2024/04/12 12:30:18;;;;;;;;;;;;;;;20.48;100.00;97280.56;5439864;26;19939;-74
2024/04/12 12:32:49;;;;;;;;;;;;;;;20.44;100.00;97282.28;5438024;26;19929;-72
2024/04/12 12:35:22;;;;;;;;;;;;;;;20.32;100.00;97270.16;5439275;26;20243;-72
2024/04/12 12:37:50;;;;;;;;;;;;;;;20.08;100.00;97267.59;5438918;26;19928;-72
2024/04/12 12:40:20;;;;;;;;;;;;;;;20.34;100.00;97268.00;5439422;26;20588;-72
2024/04/12 12:42:48;;;;;;;;;;;;;;;20.52;100.00;97258.94;5439661;26;19928;-74
2024/04/12 12:45:16;;;;;;;;;;;;;;;20.51;100.00;97260.84;5439346;26;19934;-72
2024/04/12 12:47:43;;;;;;;;;;;;;;;20.26;100.00;97249.53;5438862;26;20363;-72
2024/04/12 12:50:19;;;;;;;;;;;;;;;20.20;100.00;97249.63;5439484;26;19928;-72
2024/04/12 12:52:49;;;;;;;;;;;;;;;20.20;100.00;97252.34;5437757;26;19928;-72
2024/04/12 12:55:22;;;;;;;;;;;;;;;20.07;100.00;97246.84;5437992;26;19928;-73
2024/04/12 12:57:57;;;;;;;;;;;;;;;20.10;100.00;97248.97;5438436;26;20376;-72
2024/04/12 13:00:33;;;;;;;;;;;;;;;20.06;100.00;97247.97;5438929;26;19941;-73
2024/04/12 13:03:01;;;;;;;;;;;;;;;19.99;100.00;97245.63;5438390;26;19934;-72
2024/04/12 13:05:30;;;;;;;;;;;;;;;19.88;100.00;97238.69;5438096;26;19958;-75
2024/04/12 13:07:58;;;;;;;;;;;;;;;20.09;100.00;97239.97;5439282;26;20419;-74
2024/04/12 13:10:27;;;;;;;;;;;;;;;20.23;100.00;97240.03;5437293;26;19928;-73
2024/04/12 13:12:54;;;;;;;;;;;;;;;20.22;100.00;97232.94;5438962;26;19929;-74
2024/04/12 13:15:22;;;;;;;;;;;;;;;20.37;100.00;97234.63;5438792;26;19935;-74
2024/04/12 13:17:49;;;;;;;;;;;;;;;20.34;100.00;97227.03;5438842;26;19934;-73
2024/04/12 13:20:20;;;;;;;;;;;;;;;20.28;100.00;97228.19;5437204;26;19962;-74
2024/04/12 13:22:47;;;;;;;;;;;;;;;20.09;100.00;97218.13;5437543;26;19928;-74
2024/04/12 13:25:15;;;;;;;;;;;;;;;20.11;100.00;97215.09;5438700;26;19928;-74
2024/04/12 13:27:51;;;;;;;;;;;;;;;19.94;100.00;97220.34;5438534;26;20256;-74
2024/04/12 13:30:25;;;;;;;;;;;;;;;20.05;100.00;97217.13;5438868;26;20246;-74
2024/04/12 13:32:58;;;;;;;;;;;;;;;20.11;100.00;97212.38;5438234;26;19928;-74
2024/04/12 13:35:28;;;;;;;;;;;;;;;20.12;100.00;97214.81;5437069;26;20010;-74
2024/04/12 13:37:55;;;;;;;;;;;;;;;20.13;100.00;97210.97;5436765;26;19935;-75
2024/04/12 13:40:25;;;;;;;;;;;;;;;20.08;100.00;97207.53;5438297;26;19935;-74
2024/04/12 13:42:54;;;;;;;;;;;;;;;19.92;100.00;97201.53;5438831;26;19935;-74
2024/04/12 13:50:56;;;;;;;;;;;;;;;19.97;100.00;97203.34;5438203;26;19935;-73
2024/04/12 13:53:32;;;;;;;;;;;;;;;19.98;100.00;97211.25;5438197;26;19935;-75
2024/04/12 13:56:19;;;;;;;;;;;;;;;19.83;100.00;97200.56;5435388;26;19929;-74
2024/04/12 13:58:58;;;;;;;;;;;;;;;19.89;100.00;97202.09;5438772;26;19928;-74
2024/04/12 14:01:26;;;;;;;;;;;;;;;19.93;100.00;97186.78;5437855;26;20059;-74
2024/04/12 14:03:57;;;;;;;;;;;;;;;19.62;100.00;97180.19;5438283;26;19929;-74
2024/04/12 14:06:25;;;;;;;;;;;;;;;19.73;100.00;97187.09;5438231;26;19929;-74
2024/04/12 14:08:52;;;;;;;;;;;;;;;19.67;100.00;97178.19;5437971;26;19929;-74
2024/04/12 14:11:20;;;;;;;;;;;;;;;19.56;100.00;97174.03;5439512;26;19928;-74
2024/04/12 14:13:48;;;;;;;;;;;;;;;19.48;100.00;97180.16;5437142;26;19958;-74
2024/04/12 14:16:16;;;;;;;;;;;;;;;19.47;100.00;97177.72;5434186;26;19929;-74
2024/04/12 14:18:44;;;;;;;;;;;;;;;19.55;100.00;97172.41;5436803;26;19935;-74
2024/04/12 14:21:15;;;;;;;;;;;;;;;19.59;100.00;97180.78;5437955;26;19963;-74
2024/04/12 14:23:43;;;;;;;;;;;;;;;19.49;100.00;97186.41;5438022;26;19928;-74
2024/04/12 14:26:11;;;;;;;;;;;;;;;19.49;100.00;97170.84;5438112;26;19940;-74